This is the latest recevied weather packets stored in our database for station/object DC0PP-10. If no packets are shown the sender has not sent any weather packets the latest 10 day(s).
| Time | Temp. | Humidity | Pressure | Rain* | Wind** | Luminosity | Snow |
|---|---|---|---|---|---|---|---|
| 1777805746 | 22.78° C | 61% | 1015.8 hPa | - | - | - | - |
| 1777804846 | 23.33° C | 51% | 1015.7 hPa | - | - | - | - |
| 1777803946 | 23.33° C | 49% | 1015.6 hPa | - | - | - | - |
| 1777803046 | 23.33° C | 50% | 1015.8 hPa | - | - | - | - |
| 1777802145 | 23.33° C | 52% | 1016.1 hPa | - | - | - | - |
| 1777801245 | 22.22° C | 52% | 1016.5 hPa | - | - | - | - |
| 1777800345 | 22.22° C | 59% | 1016.6 hPa | - | - | - | - |
| 1777799445 | 21.11° C | 62% | 1016.6 hPa | - | - | - | - |
| 1777798545 | 20.56° C | 66% | 1016.8 hPa | - | - | - | - |
| 1777797644 | 20.56° C | 71% | 1016.9 hPa | - | - | - | - |
| 1777796744 | 20° C | 70% | 1017 hPa | - | - | - | - |
| 1777795844 | 20° C | 71% | 1017.1 hPa | - | - | - | - |
| 1777794944 | 18.89° C | 76% | 1017.2 hPa | - | - | - | - |
| 1777794043 | 17.22° C | 90% | 1017.3 hPa | - | - | - | - |
| 1777793143 | 16.11° C | 94% | 1017.6 hPa | - | - | - | - |
| 1777792243 | 15.56° C | 99% | 1017.5 hPa | - | - | - | - |
| 1777791343 | 15° C | 100% | 1017.6 hPa | - | - | - | - |
| 1777790442 | 15° C | 100% | 1017.6 hPa | - | - | - | - |
| 1777789547 | 14.44° C | 100% | 1017.5 hPa | - | - | - | - |
| 1777788647 | 14.44° C | 100% | 1017.4 hPa | - | - | - | - |
| 1777787747 | 15° C | 93% | 1017.5 hPa | - | - | - | - |
| 1777786846 | 15.56° C | 92% | 1017.1 hPa | - | - | - | - |
| 1777785946 | 15.56° C | 93% | 1017.1 hPa | - | - | - | - |
| 1777785046 | 15.56° C | 89% | 1016.9 hPa | - | - | - | - |
| 1777784146 | 15.56° C | 84% | 1016.4 hPa | - | - | - | - |
* Rain since midnight (hover to see other rain measurements)
** Current wind speed in m/s (hover to see current wind gust speed)